Time,TemperatureF,DewpointF,PressureIn,WindDirection,WindDirectionDegrees,WindSpeedMPH,WindSpeedGustMPH,Humidity,HourlyPrecipIn,Conditions,Clouds,dailyrainin,SolarRadiationWatts/m^2,SoftwareType,DateUTC
2013-05-11 00:01:00,44.6,36.1,29.89,ENE,57,0.0,0.0,72,0.00,OVC,,0.00,0.0,WeatherDisplay:10.37,2013-05-11 05:01:00,
2013-05-11 00:06:00,44.6,36.5,29.89,ENE,57,0.0,0.0,73,0.00,OVC,,0.00,0.0,WeatherDisplay:10.37,2013-05-11 05:06:00,
2013-05-11 00:11:00,44.5,36.7,29.88,ENE,57,0.0,0.0,74,0.00,OVC,,0.00,0.0,WeatherDisplay:10.37,2013-05-11 05:11:00,
2013-05-11 00:16:00,44.5,36.4,29.88,ENE,57,0.0,0.0,73,0.00,OVC,,0.00,0.0,WeatherDisplay:10.37,2013-05-11 05:16:00,
2013-05-11 00:21:00,44.5,36.0,29.88,ENE,57,0.0,0.0,72,0.00,OVC,,0.00,0.0,WeatherDisplay:10.37,2013-05-11 05:21:00,
2013-05-11 00:27:00,44.4,37.0,29.87,ENE,57,0.0,0.0,75,0.00,OVC,,0.00,0.0,WeatherDisplay:10.37,2013-05-11 05:27:00,
2013-05-11 00:32:00,44.3,36.5,29.87,ENE,57,0.0,0.0,74,0.00,OVC,,0.00,0.0,WeatherDisplay:10.37,2013-05-11 05:32:00,
2013-05-11 00:37:00,44.2,36.1,29.87,ENE,57,0.0,0.0,73,0.00,OVC,,0.00,0.0,WeatherDisplay:10.37,2013-05-11 05:37:00,
2013-05-11 00:42:00,44.2,36.4,29.87,ENE,57,0.0,0.0,74,0.00,OVC,,0.00,0.0,WeatherDisplay:10.37,2013-05-11 05:42:00,
2013-05-11 00:47:00,44.2,37.1,29.87,ENE,57,0.0,0.0,76,0.00,OVC,,0.00,0.0,WeatherDisplay:10.37,2013-05-11 05:47:00,
2013-05-11 00:52:00,44.3,37.2,29.87,ENE,57,0.0,0.0,76,0.00,OVC,,0.00,0.0,WeatherDisplay:10.37,2013-05-11 05:52:00,
2013-05-11 00:57:00,44.4,37.3,29.88,ENE,57,0.0,0.0,76,0.00,OVC,,0.00,0.0,WeatherDisplay:10.37,2013-05-11 05:57:00,
2013-05-11 01:02:00,44.5,36.4,29.87,SE,126,5.0,5.0,73,0.00,OVC,,0.00,0.0,WeatherDisplay:10.37,2013-05-11 06:02:00,
2013-05-11 01:07:00,44.4,38.3,29.87,South,171,1.1,1.1,79,0.00,OVC,,0.00,0.0,WeatherDisplay:10.37,2013-05-11 06:07:00,
2013-05-11 01:12:00,44.2,38.7,29.86,South,171,0.0,0.0,81,0.00,OVC,,0.00,0.0,WeatherDisplay:10.37,2013-05-11 06:12:00,
2013-05-11 01:17:00,44.1,38.6,29.85,South,171,0.0,0.0,81,0.00,OVC,,0.00,0.0,WeatherDisplay:10.37,2013-05-11 06:17:00,
2013-05-11 01:22:00,44.0,38.5,29.85,South,171,0.0,0.0,81,0.00,OVC,,0.00,0.0,WeatherDisplay:10.37,2013-05-11 06:22:00,
2013-05-11 01:27:00,43.9,39.1,29.85,South,171,0.0,0.0,83,0.00,OVC,,0.00,0.0,WeatherDisplay:10.37,2013-05-11 06:27:00,
2013-05-11 01:32:00,43.8,38.3,29.85,South,171,0.0,0.0,81,0.00,OVC,,0.00,0.0,WeatherDisplay:10.37,2013-05-11 06:32:00,
2013-05-11 01:37:00,43.8,38.7,29.85,South,171,0.0,0.0,82,0.00,OVC,,0.00,0.0,WeatherDisplay:10.37,2013-05-11 06:37:00,
2013-05-11 01:42:00,43.8,39.3,29.85,South,171,0.0,0.0,84,0.00,OVC,,0.00,0.0,WeatherDisplay:10.37,2013-05-11 06:42:00,
2013-05-11 01:47:00,43.9,39.1,29.85,South,171,0.0,0.0,83,0.00,OVC,,0.00,0.0,WeatherDisplay:10.37,2013-05-11 06:47:00,
2013-05-11 01:52:00,43.9,39.1,29.85,South,171,0.0,0.0,83,0.00,OVC,,0.00,0.0,WeatherDisplay:10.37,2013-05-11 06:52:00,
2013-05-11 01:57:00,44.0,39.2,29.85,South,171,0.0,0.0,83,0.00,OVC,,0.00,0.0,WeatherDisplay:10.37,2013-05-11 06:57:00,
2013-05-11 02:02:00,44.0,39.5,29.86,South,171,0.0,0.0,84,0.00,OVC,,0.00,0.0,WeatherDisplay:10.37,2013-05-11 07:02:00,
2013-05-11 02:07:00,44.2,37.8,29.86,South,178,0.0,0.0,78,0.00,OVC,,0.00,0.0,WeatherDisplay:10.37,2013-05-11 07:07:00,
2013-05-11 02:12:00,44.6,38.5,29.86,NNE,23,4.0,4.0,79,0.00,OVC,,0.00,0.0,WeatherDisplay:10.37,2013-05-11 07:12:00,
2013-05-11 02:17:00,45.3,38.8,29.86,NNW,329,3.5,3.5,78,0.00,OVC,,0.00,0.0,WeatherDisplay:10.37,2013-05-11 07:17:00,
2013-05-11 02:22:00,45.8,36.9,29.87,ENE,73,3.5,3.5,71,0.00,OVC,,0.00,0.0,WeatherDisplay:10.37,2013-05-11 07:22:00,
2013-05-11 02:27:00,46.6,35.8,29.87,West,276,1.1,1.1,66,0.00,OVC,,0.00,0.0,WeatherDisplay:10.37,2013-05-11 07:27:00,
2013-05-11 02:32:00,47.0,35.4,29.88,North,355,5.8,5.8,64,0.00,OVC,,0.00,0.0,WeatherDisplay:10.37,2013-05-11 07:32:00,
2013-05-11 02:37:00,47.0,34.6,29.88,WSW,245,4.0,4.0,62,0.00,OVC,,0.00,0.0,WeatherDisplay:10.37,2013-05-11 07:37:00,
2013-05-11 02:42:00,46.6,34.3,29.88,WSW,258,1.1,1.1,62,0.00,OVC,,0.00,0.0,WeatherDisplay:10.37,2013-05-11 07:42:00,
2013-05-11 02:47:00,46.2,33.9,29.88,NNW,327,3.5,3.5,62,0.00,OVC,,0.00,0.0,WeatherDisplay:10.37,2013-05-11 07:47:00,
2013-05-11 02:52:00,45.7,33.4,29.88,NNE,25,3.5,3.5,62,0.00,OVC,,0.00,0.0,WeatherDisplay:10.37,2013-05-11 07:52:00,
2013-05-11 02:57:00,45.2,32.9,29.88,North,9,4.0,4.0,62,0.00,OVC,,0.00,0.0,WeatherDisplay:10.37,2013-05-11 07:57:00,
2013-05-11 03:02:00,44.8,33.4,29.88,NNE,17,3.5,3.5,64,0.00,OVC,,0.00,0.0,WeatherDisplay:10.37,2013-05-11 08:02:00,
2013-05-11 03:07:00,44.3,33.3,29.88,South,186,3.5,3.5,65,0.00,OVC,,0.00,0.0,WeatherDisplay:10.37,2013-05-11 08:07:00,
2013-05-11 03:12:00,43.9,33.6,29.89,North,5,3.5,3.5,67,0.00,OVC,,0.00,0.0,WeatherDisplay:10.37,2013-05-11 08:12:00,
2013-05-11 03:17:00,43.5,34.4,29.89,NNE,22,3.5,3.5,70,0.00,OVC,,0.00,0.0,WeatherDisplay:10.37,2013-05-11 08:17:00,
2013-05-11 03:22:00,43.1,34.7,29.89,North,355,3.5,3.5,72,0.00,OVC,,0.00,0.0,WeatherDisplay:10.37,2013-05-11 08:22:00,
2013-05-11 03:27:00,42.8,34.7,29.90,SSW,209,5.8,5.8,73,0.00,OVC,,0.00,0.0,WeatherDisplay:10.37,2013-05-11 08:27:00,
2013-05-11 03:32:00,42.7,35.0,29.90,ENE,60,3.5,3.5,74,0.00,OVC,,0.00,0.0,WeatherDisplay:10.37,2013-05-11 08:32:00,
2013-05-11 03:37:00,42.5,35.1,29.90,WSW,256,3.5,3.5,75,0.00,OVC,,0.00,0.0,WeatherDisplay:10.37,2013-05-11 08:37:00,
2013-05-11 03:42:00,42.4,35.4,29.90,WSW,256,1.1,1.1,76,0.00,OVC,,0.00,0.0,WeatherDisplay:10.37,2013-05-11 08:42:00,
2013-05-11 03:47:00,42.3,35.6,29.90,West,275,3.5,3.5,77,0.00,OVC,,0.00,0.0,WeatherDisplay:10.37,2013-05-11 08:47:00,
2013-05-11 03:52:00,42.2,35.5,29.91,SSE,166,3.5,3.5,77,0.00,OVC,,0.00,0.0,WeatherDisplay:10.37,2013-05-11 08:52:00,
2013-05-11 03:57:00,42.1,36.4,29.91,NNW,348,4.6,4.6,80,0.00,OVC,,0.00,0.0,WeatherDisplay:10.37,2013-05-11 08:57:00,
2013-05-11 04:02:00,41.8,36.7,29.91,SE,139,3.5,0.0,82,0.00,OVC,,0.00,0.0,WeatherDisplay:10.37,2013-05-11 09:02:00,
2013-05-11 04:07:00,41.5,36.7,29.91,NW,315,1.1,1.1,83,0.00,OVC,,0.00,0.0,WeatherDisplay:10.37,2013-05-11 09:07:00,
2013-05-11 04:12:00,41.2,36.7,29.91,NNE,22,0.0,0.3,84,0.00,OVC,,0.00,0.0,WeatherDisplay:10.37,2013-05-11 09:12:00,
2013-05-11 04:17:00,41.0,36.5,29.91,East,79,3.5,3.5,84,0.00,OVC,,0.00,0.0,WeatherDisplay:10.37,2013-05-11 09:17:00,
2013-05-11 04:22:00,40.7,35.9,29.91,NNW,336,1.1,1.1,83,0.00,OVC,,0.00,0.0,WeatherDisplay:10.37,2013-05-11 09:22:00,
2013-05-11 04:27:00,40.5,35.7,29.91,NW,319,3.5,3.5,83,0.00,OVC,,0.00,0.0,WeatherDisplay:10.37,2013-05-11 09:27:00,
2013-05-11 04:32:00,40.4,35.6,29.91,NW,325,4.6,4.6,83,0.00,OVC,,0.00,0.0,WeatherDisplay:10.37,2013-05-11 09:32:00,
2013-05-11 04:37:00,40.3,35.5,29.91,North,9,3.5,3.5,83,0.00,OVC,,0.00,0.0,WeatherDisplay:10.37,2013-05-11 09:37:00,
2013-05-11 04:42:00,40.2,35.4,29.91,WSW,247,3.5,3.5,83,0.00,OVC,,0.00,0.0,WeatherDisplay:10.37,2013-05-11 09:42:00,
2013-05-11 04:47:00,40.1,35.0,29.91,NNW,342,3.5,3.5,82,0.00,OVC,,0.00,0.0,WeatherDisplay:10.37,2013-05-11 09:47:00,
2013-05-11 04:52:00,39.9,34.5,29.91,North,355,3.5,3.5,81,0.00,OVC,,0.00,0.0,WeatherDisplay:10.37,2013-05-11 09:52:00,
2013-05-11 04:57:00,39.8,34.8,29.91,West,263,2.3,0.0,82,0.00,OVC,,0.00,0.0,WeatherDisplay:10.37,2013-05-11 09:57:00,
2013-05-11 05:02:00,39.7,34.3,29.91,SW,216,5.8,5.8,81,0.00,FEW,,0.00,0.0,WeatherDisplay:10.37,2013-05-11 10:02:00,
2013-05-11 05:07:00,39.6,34.2,29.92,NNW,343,4.0,4.0,81,0.00,FEW,,0.00,0.0,WeatherDisplay:10.37,2013-05-11 10:07:00,
2013-05-11 05:12:00,39.5,34.2,29.92,NNE,33,8.1,8.1,81,0.00,FEW,,0.00,0.0,WeatherDisplay:10.37,2013-05-11 10:12:00,
2013-05-11 05:17:00,39.4,34.1,29.92,NW,311,2.3,2.3,81,0.00,BKN,,0.00,0.0,WeatherDisplay:10.37,2013-05-11 10:17:00,
2013-05-11 05:22:00,39.2,33.9,29.92,NW,311,4.6,4.6,81,0.00,BKN,,0.00,0.0,WeatherDisplay:10.37,2013-05-11 10:22:00,
2013-05-11 05:27:00,39.1,33.5,29.92,North,350,3.5,3.5,80,0.00,BKN,,0.00,0.0,WeatherDisplay:10.37,2013-05-11 10:27:00,
2013-05-11 05:32:00,38.7,33.1,29.93,West,279,4.6,4.6,80,0.00,BKN,,0.00,0.0,WeatherDisplay:10.37,2013-05-11 10:32:00,
2013-05-11 05:37:00,38.4,32.8,29.93,WSW,254,4.6,4.6,80,0.00,BKN,,0.00,0.0,WeatherDisplay:10.37,2013-05-11 10:37:00,
2013-05-11 05:42:00,38.2,32.3,29.93,North,11,4.6,4.6,79,0.00,BKN,,0.00,0.0,WeatherDisplay:10.37,2013-05-11 10:42:00,
2013-05-11 05:47:00,38.0,32.4,29.93,West,281,4.0,4.0,80,0.00,BKN,,0.00,0.0,WeatherDisplay:10.37,2013-05-11 10:47:00,
2013-05-11 05:52:00,37.8,32.2,29.94,WNW,288,3.5,3.5,80,0.00,BKN,,0.00,7.0,WeatherDisplay:10.37,2013-05-11 10:52:00,
2013-05-11 05:57:00,37.8,32.5,29.94,SE,146,1.1,1.1,81,0.00,BKN,,0.00,7.0,WeatherDisplay:10.37,2013-05-11 10:57:00,
2013-05-11 06:02:00,37.9,32.3,29.94,NE,40,2.3,2.3,80,0.00,OVC,,0.00,9.0,WeatherDisplay:10.37,2013-05-11 11:02:00,
2013-05-11 06:07:00,38.0,32.4,29.94,NNW,340,3.5,3.5,80,0.00,OVC,,0.00,7.0,WeatherDisplay:10.37,2013-05-11 11:07:00,
2013-05-11 06:12:00,38.0,32.4,29.95,ENE,67,6.9,6.9,80,0.00,OVC,,0.00,9.0,WeatherDisplay:10.37,2013-05-11 11:12:00,
2013-05-11 06:18:00,38.0,32.1,29.95,NNW,346,2.3,2.3,79,0.00,OVC,,0.00,11.0,WeatherDisplay:10.37,2013-05-11 11:18:00,
2013-05-11 06:23:00,38.0,32.1,29.95,NE,37,5.0,5.0,79,0.00,OVC,,0.00,11.0,WeatherDisplay:10.37,2013-05-11 11:23:00,
2013-05-11 06:28:00,38.1,32.2,29.95,NNW,346,4.6,0.0,79,0.00,OVC,,0.00,11.0,WeatherDisplay:10.37,2013-05-11 11:28:00,
2013-05-11 06:33:00,38.1,32.2,29.95,West,276,3.5,3.5,79,0.00,OVC,,0.00,16.0,WeatherDisplay:10.37,2013-05-11 11:33:00,
2013-05-11 06:38:00,38.2,31.9,29.95,WNW,288,2.3,0.0,78,0.00,OVC,,0.00,23.0,WeatherDisplay:10.37,2013-05-11 11:38:00,
2013-05-11 06:43:00,38.2,31.6,29.95,NW,326,2.3,2.3,77,0.00,OVC,,0.00,23.0,WeatherDisplay:10.37,2013-05-11 11:43:00,
2013-05-11 06:48:00,38.3,31.4,29.95,WNW,285,3.5,3.5,76,0.00,OVC,,0.00,23.0,WeatherDisplay:10.37,2013-05-11 11:48:00,
2013-05-11 06:53:00,38.4,31.2,29.95,SW,234,4.6,4.6,75,0.00,OVC,,0.00,26.0,WeatherDisplay:10.37,2013-05-11 11:53:00,
2013-05-11 06:58:00,38.5,31.3,29.96,NNE,22,5.8,5.8,75,0.00,OVC,,0.00,25.0,WeatherDisplay:10.37,2013-05-11 11:58:00,
2013-05-11 07:03:00,38.5,30.9,29.96,NNW,331,1.1,1.1,74,0.00,OVC,,0.00,32.0,WeatherDisplay:10.37,2013-05-11 12:03:00,
2013-05-11 07:08:00,38.6,30.7,29.96,WSW,255,6.9,6.9,73,0.00,OVC,,0.00,32.0,WeatherDisplay:10.37,2013-05-11 12:08:00,
2013-05-11 07:13:00,38.6,30.4,29.96,WSW,246,5.8,5.8,72,0.00,OVC,,0.00,32.0,WeatherDisplay:10.37,2013-05-11 12:13:00,
2013-05-11 07:18:00,38.6,30.4,29.97,WNW,300,3.5,3.5,72,0.00,OVC,,0.00,33.0,WeatherDisplay:10.37,2013-05-11 12:18:00,
2013-05-11 07:23:00,38.6,30.0,29.96,NNE,12,5.0,5.0,71,0.00,OVC,,0.00,40.0,WeatherDisplay:10.37,2013-05-11 12:23:00,
2013-05-11 07:28:00,38.6,30.4,29.96,NW,323,2.0,2.0,72,0.00,OVC,,0.00,54.0,WeatherDisplay:10.37,2013-05-11 12:28:00,
2013-05-11 07:33:00,38.7,30.1,29.96,NNE,18,3.5,3.5,71,0.00,OVC,,0.00,60.0,WeatherDisplay:10.37,2013-05-11 12:33:00,
2013-05-11 07:38:00,38.7,30.1,29.96,WNW,291,3.5,3.5,71,0.00,OVC,,0.00,69.0,WeatherDisplay:10.37,2013-05-11 12:38:00,
2013-05-11 07:43:00,38.8,29.8,29.96,NNW,348,5.8,5.8,70,0.00,OVC,,0.00,79.0,WeatherDisplay:10.37,2013-05-11 12:43:00,
2013-05-11 07:48:00,39.0,30.0,29.96,WSW,251,4.6,4.6,70,0.00,OVC,,0.00,70.0,WeatherDisplay:10.37,2013-05-11 12:48:00,
2013-05-11 07:53:00,39.1,30.1,29.96,WNW,283,5.8,5.8,70,0.00,OVC,,0.00,88.0,WeatherDisplay:10.37,2013-05-11 12:53:00,
2013-05-11 07:58:00,39.3,30.0,29.96,SW,224,5.0,5.0,69,0.00,OVC,,0.00,125.0,WeatherDisplay:10.37,2013-05-11 12:58:00,
2013-05-11 08:03:00,39.7,30.4,29.96,NNW,331,8.1,8.1,69,0.00,OVC,,0.00,107.0,WeatherDisplay:10.37,2013-05-11 13:03:00,
2013-05-11 08:08:00,39.9,30.5,29.96,North,355,2.3,2.3,69,0.00,OVC,,0.00,113.0,WeatherDisplay:10.37,2013-05-11 13:08:00,
2013-05-11 08:13:00,40.1,31.1,29.96,NW,325,6.0,6.0,70,0.00,OVC,,0.00,107.0,WeatherDisplay:10.37,2013-05-11 13:13:00,
2013-05-11 08:18:00,40.2,30.5,29.96,North,360,2.3,0.0,68,0.00,OVC,,0.00,109.0,WeatherDisplay:10.37,2013-05-11 13:18:00,
2013-05-11 08:23:00,40.5,30.8,29.96,West,265,3.5,3.5,68,0.00,OVC,,0.00,120.0,WeatherDisplay:10.37,2013-05-11 13:23:00,
2013-05-11 08:28:00,40.9,30.8,29.96,NW,323,8.1,8.1,67,0.00,OVC,,0.00,83.0,WeatherDisplay:10.37,2013-05-11 13:28:00,
2013-05-11 08:33:00,40.9,30.4,29.96,West,259,3.5,3.5,66,0.00,OVC,,0.00,74.0,WeatherDisplay:10.37,2013-05-11 13:33:00,
2013-05-11 08:38:00,41.2,31.1,29.96,NNE,15,2.3,2.3,67,0.00,OVC,,0.00,128.0,WeatherDisplay:10.37,2013-05-11 13:38:00,
2013-05-11 08:43:00,41.6,31.4,29.96,West,280,8.1,8.1,67,0.00,OVC,,0.00,156.0,WeatherDisplay:10.37,2013-05-11 13:43:00,
2013-05-11 08:48:00,41.9,31.4,29.96,SW,225,4.0,4.0,66,0.00,OVC,,0.00,251.0,WeatherDisplay:10.37,2013-05-11 13:48:00,
2013-05-11 08:53:00,42.2,31.3,29.96,WNW,283,4.6,4.6,65,0.00,OVC,,0.00,120.0,WeatherDisplay:10.37,2013-05-11 13:53:00,
2013-05-11 08:58:00,41.7,31.2,29.96,West,261,8.1,8.1,66,0.00,OVC,,0.00,79.0,WeatherDisplay:10.37,2013-05-11 13:58:00,
2013-05-11 09:03:00,41.3,31.2,29.96,West,268,5.0,5.0,67,0.00,BKN,,0.00,139.0,WeatherDisplay:10.37,2013-05-11 14:03:00,
2013-05-11 09:08:00,41.3,30.4,29.96,WSW,255,6.9,6.9,65,0.00,BKN,,0.00,137.0,WeatherDisplay:10.37,2013-05-11 14:08:00,
2013-05-11 09:13:00,41.3,30.4,29.97,WNW,282,3.5,3.5,65,0.00,BKN,,0.00,98.0,WeatherDisplay:10.37,2013-05-11 14:13:00,
2013-05-11 09:18:00,41.1,29.1,29.96,NW,317,8.1,8.1,62,0.00,BKN,,0.00,84.0,WeatherDisplay:10.37,2013-05-11 14:18:00,
2013-05-11 09:23:00,41.2,28.8,29.97,NE,41,2.3,2.3,61,0.00,BKN,,0.00,176.0,WeatherDisplay:10.37,2013-05-11 14:23:00,
2013-05-11 09:28:00,41.9,29.4,29.96,NNW,334,5.0,5.0,61,0.00,BKN,,0.00,127.0,WeatherDisplay:10.37,2013-05-11 14:28:00,
2013-05-11 09:33:00,42.3,29.0,29.96,North,355,5.8,5.8,59,0.00,BKN,,0.00,135.0,WeatherDisplay:10.37,2013-05-11 14:33:00,
2013-05-11 09:38:00,42.9,28.7,29.96,South,183,6.9,6.9,57,0.00,BKN,,0.00,200.0,WeatherDisplay:10.37,2013-05-11 14:38:00,
2013-05-11 09:43:00,43.4,30.4,29.97,NW,311,10.4,10.4,60,0.00,BKN,,0.00,220.0,WeatherDisplay:10.37,2013-05-11 14:43:00,
2013-05-11 09:48:00,43.5,29.7,29.96,WSW,257,10.0,10.0,58,0.00,BKN,,0.00,179.0,WeatherDisplay:10.37,2013-05-11 14:48:00,
2013-05-11 09:53:00,42.9,29.5,29.97,NW,310,3.5,3.5,59,0.00,BKN,,0.00,183.0,WeatherDisplay:10.37,2013-05-11 14:53:00,
2013-05-11 09:58:00,42.7,28.9,29.97,NW,321,3.5,3.5,58,0.00,BKN,,0.00,165.0,WeatherDisplay:10.37,2013-05-11 14:58:00,
2013-05-11 10:03:00,42.5,28.3,29.97,North,355,10.4,10.4,57,0.00,OVC,,0.00,188.0,WeatherDisplay:10.37,2013-05-11 15:03:00,
2013-05-11 10:08:00,42.6,28.8,29.97,North,5,5.8,5.8,58,0.00,OVC,,0.00,188.0,WeatherDisplay:10.37,2013-05-11 15:08:00,
2013-05-11 10:13:00,42.8,27.7,29.97,NE,42,11.5,11.5,55,0.00,OVC,,0.00,230.0,WeatherDisplay:10.37,2013-05-11 15:13:00,
2013-05-11 10:18:00,42.8,28.6,29.97,North,360,4.6,4.6,57,0.00,OVC,,0.00,216.0,WeatherDisplay:10.37,2013-05-11 15:18:00,
2013-05-11 10:23:00,42.9,28.3,29.98,NNE,16,3.5,3.5,56,0.00,OVC,,0.00,195.0,WeatherDisplay:10.37,2013-05-11 15:23:00,
2013-05-11 10:28:00,42.7,27.2,29.98,NNW,344,5.8,5.8,54,0.00,OVC,,0.00,255.0,WeatherDisplay:10.37,2013-05-11 15:28:00,
2013-05-11 10:33:00,42.5,27.5,29.98,WSW,238,4.6,4.6,55,0.00,OVC,,0.00,253.0,WeatherDisplay:10.37,2013-05-11 15:33:00,
2013-05-11 10:38:00,42.4,27.4,29.98,NW,308,6.9,6.9,55,0.00,OVC,,0.00,265.0,WeatherDisplay:10.37,2013-05-11 15:38:00,
2013-05-11 10:43:00,42.5,27.0,29.99,NNW,338,6.9,6.9,54,0.00,OVC,,0.00,179.0,WeatherDisplay:10.37,2013-05-11 15:43:00,
2013-05-11 10:48:00,42.5,28.3,29.99,West,273,6.9,6.9,57,0.00,OVC,,0.00,346.0,WeatherDisplay:10.37,2013-05-11 15:48:00,
2013-05-11 10:53:00,42.7,26.7,29.99,WSW,247,10.0,10.0,53,0.00,OVC,,0.00,285.0,WeatherDisplay:10.37,2013-05-11 15:53:00,
2013-05-11 10:58:00,42.4,27.8,29.99,NNE,15,3.5,3.5,56,0.00,OVC,,0.00,176.0,WeatherDisplay:10.37,2013-05-11 15:58:00,
2013-05-11 11:03:00,42.1,27.9,29.99,South,189,6.0,6.0,57,0.00,OVC,,0.00,193.0,WeatherDisplay:10.37,2013-05-11 16:03:00,
2013-05-11 11:09:00,42.0,27.4,29.99,WSW,250,4.6,4.6,56,0.00,OVC,,0.00,186.0,WeatherDisplay:10.37,2013-05-11 16:09:00,
2013-05-11 11:14:00,41.8,26.8,29.99,North,5,11.5,11.5,55,0.00,OVC,,0.00,178.0,WeatherDisplay:10.37,2013-05-11 16:14:00,
2013-05-11 11:19:00,41.4,27.3,29.99,NE,42,3.5,3.5,57,0.00,OVC,,0.00,192.0,WeatherDisplay:10.37,2013-05-11 16:19:00,
2013-05-11 11:24:00,41.4,27.3,29.99,West,275,11.5,11.5,57,0.00,OVC,,0.00,246.0,WeatherDisplay:10.37,2013-05-11 16:24:00,
2013-05-11 11:29:00,41.5,27.8,30.00,NNW,340,8.1,8.1,58,0.00,OVC,,0.00,190.0,WeatherDisplay:10.37,2013-05-11 16:29:00,
2013-05-11 11:34:00,41.6,27.9,29.99,WSW,240,5.8,5.8,58,0.00,OVC,,0.00,214.0,WeatherDisplay:10.37,2013-05-11 16:34:00,
2013-05-11 11:39:00,41.7,28.0,29.99,NW,306,9.2,9.2,58,0.00,OVC,,0.00,190.0,WeatherDisplay:10.37,2013-05-11 16:39:00,
2013-05-11 11:44:00,41.5,26.5,29.99,NE,34,10.4,10.4,55,0.00,OVC,,0.00,288.0,WeatherDisplay:10.37,2013-05-11 16:44:00,
2013-05-11 11:49:00,41.5,27.0,29.99,NNE,20,4.6,4.6,56,0.00,OVC,,0.00,369.0,WeatherDisplay:10.37,2013-05-11 16:49:00,
2013-05-11 11:54:00,41.8,26.4,29.99,NNE,22,5.8,5.8,54,0.00,OVC,,0.00,220.0,WeatherDisplay:10.37,2013-05-11 16:54:00,
2013-05-11 11:59:00,42.0,27.0,29.99,North,350,3.5,3.5,55,0.00,OVC,,0.00,155.0,WeatherDisplay:10.37,2013-05-11 16:59:00,
2013-05-11 12:04:00,41.8,26.8,30.00,SW,235,3.5,3.5,55,0.00,OVC,,0.00,218.0,WeatherDisplay:10.37,2013-05-11 17:04:00,
2013-05-11 12:09:00,41.9,26.0,29.99,NNE,32,10.4,10.4,53,0.00,OVC,,0.00,250.0,WeatherDisplay:10.37,2013-05-11 17:09:00,
2013-05-11 12:14:00,41.9,25.1,30.00,North,9,8.1,8.1,51,0.00,OVC,,0.00,239.0,WeatherDisplay:10.37,2013-05-11 17:14:00,
2013-05-11 12:19:00,41.9,24.6,30.00,WSW,250,8.1,8.1,50,0.00,OVC,,0.00,221.0,WeatherDisplay:10.37,2013-05-11 17:19:00,
2013-05-11 12:24:00,41.9,25.1,30.00,NW,319,5.8,5.8,51,0.00,OVC,,0.00,148.0,WeatherDisplay:10.37,2013-05-11 17:24:00,
2013-05-11 12:29:00,41.7,24.9,30.00,North,5,4.6,4.6,51,0.00,OVC,,0.00,137.0,WeatherDisplay:10.37,2013-05-11 17:29:00,
2013-05-11 12:34:00,41.7,26.3,30.00,North,5,4.6,4.6,54,0.00,OVC,,0.00,114.0,WeatherDisplay:10.37,2013-05-11 17:34:00,
2013-05-11 12:39:00,41.5,25.2,30.00,West,263,5.8,5.8,52,0.00,OVC,,0.00,192.0,WeatherDisplay:10.37,2013-05-11 17:39:00,
2013-05-11 12:44:00,41.5,26.1,30.00,North,5,5.8,5.8,54,0.00,OVC,,0.00,206.0,WeatherDisplay:10.37,2013-05-11 17:44:00,
2013-05-11 12:49:00,41.5,26.1,30.00,WSW,248,4.6,4.6,54,0.00,OVC,,0.00,174.0,WeatherDisplay:10.37,2013-05-11 17:49:00,
2013-05-11 12:54:00,41.6,27.1,30.00,North,360,4.6,4.6,56,0.00,OVC,,0.00,322.0,WeatherDisplay:10.37,2013-05-11 17:54:00,
2013-05-11 12:59:00,42.2,27.2,30.00,North,355,4.6,4.6,55,0.00,OVC,,0.00,443.0,WeatherDisplay:10.37,2013-05-11 17:59:00,
2013-05-11 13:04:00,42.9,26.9,30.00,SW,217,8.1,8.1,53,0.00,OVC,,0.00,292.0,WeatherDisplay:10.37,2013-05-11 18:04:00,
2013-05-11 13:09:00,42.9,26.0,30.00,WSW,254,4.6,4.6,51,0.00,OVC,,0.00,128.0,WeatherDisplay:10.37,2013-05-11 18:09:00,
2013-05-11 13:14:00,42.7,26.3,30.00,NW,325,2.3,2.3,52,0.00,OVC,,0.00,202.0,WeatherDisplay:10.37,2013-05-11 18:14:00,
2013-05-11 13:19:00,42.7,25.3,30.00,SW,234,5.8,5.8,50,0.00,OVC,,0.00,193.0,WeatherDisplay:10.37,2013-05-11 18:19:00,
2013-05-11 13:24:00,42.5,26.1,30.00,West,272,4.6,4.6,52,0.00,OVC,,0.00,165.0,WeatherDisplay:10.37,2013-05-11 18:24:00,
2013-05-11 13:29:00,42.5,26.6,30.00,WSW,254,3.5,3.5,53,0.00,OVC,,0.00,116.0,WeatherDisplay:10.37,2013-05-11 18:29:00,
2013-05-11 13:34:00,42.3,26.8,30.00,WSW,256,3.5,3.5,54,0.00,OVC,,0.00,104.0,WeatherDisplay:10.37,2013-05-11 18:34:00,
2013-05-11 13:39:00,42.0,27.0,30.00,West,268,11.5,11.5,55,0.00,OVC,,0.00,225.0,WeatherDisplay:10.37,2013-05-11 18:39:00,
2013-05-11 13:44:00,42.3,26.8,30.00,West,277,4.6,4.6,54,0.00,OVC,,0.00,288.0,WeatherDisplay:10.37,2013-05-11 18:44:00,
2013-05-11 13:49:00,42.6,27.1,30.00,WSW,256,5.0,5.0,54,0.00,OVC,,0.00,450.0,WeatherDisplay:10.37,2013-05-11 18:49:00,
2013-05-11 13:54:00,43.3,27.8,30.00,WSW,250,4.6,4.6,54,0.00,OVC,,0.00,193.0,WeatherDisplay:10.37,2013-05-11 18:54:00,
2013-05-11 13:59:00,43.4,27.4,30.00,NW,308,5.8,5.8,53,0.00,OVC,,0.00,125.0,WeatherDisplay:10.37,2013-05-11 18:59:00,
2013-05-11 14:04:00,42.9,26.5,30.01,WNW,298,9.2,9.2,52,0.00,OVC,,0.00,95.0,WeatherDisplay:10.37,2013-05-11 19:04:00,
2013-05-11 14:09:00,42.4,26.9,30.01,West,264,4.6,4.6,54,0.00,OVC,,0.00,130.0,WeatherDisplay:10.37,2013-05-11 19:09:00,
2013-05-11 14:14:00,42.3,26.4,30.01,NW,309,8.0,8.0,53,0.00,OVC,,0.00,239.0,WeatherDisplay:10.37,2013-05-11 19:14:00,
2013-05-11 14:19:00,42.6,26.6,30.01,NNE,28,3.5,3.5,53,0.00,OVC,,0.00,362.0,WeatherDisplay:10.37,2013-05-11 19:19:00,
2013-05-11 14:24:00,43.4,26.9,30.01,NNW,330,4.6,4.6,52,0.00,OVC,,0.00,401.0,WeatherDisplay:10.37,2013-05-11 19:24:00,
2013-05-11 14:29:00,43.9,26.0,30.01,WNW,302,5.8,5.8,49,0.00,OVC,,0.00,195.0,WeatherDisplay:10.37,2013-05-11 19:29:00,
2013-05-11 14:34:00,44.1,26.6,30.01,NW,312,11.5,11.5,50,0.00,OVC,,0.00,404.0,WeatherDisplay:10.37,2013-05-11 19:34:00,
2013-05-11 14:39:00,45.0,27.5,30.00,West,265,4.6,4.6,50,0.00,OVC,,0.00,503.0,WeatherDisplay:10.37,2013-05-11 19:39:00,
2013-05-11 14:44:00,45.6,27.5,30.00,West,279,4.0,4.0,49,0.00,OVC,,0.00,262.0,WeatherDisplay:10.37,2013-05-11 19:44:00,
2013-05-11 14:49:00,45.5,26.4,30.01,West,269,3.5,3.5,47,0.00,OVC,,0.00,149.0,WeatherDisplay:10.37,2013-05-11 19:49:00,
2013-05-11 14:54:00,45.0,26.5,30.00,NW,325,6.9,6.9,48,0.00,OVC,,0.00,199.0,WeatherDisplay:10.37,2013-05-11 19:54:00,
2013-05-11 14:59:00,44.4,26.9,30.00,WSW,255,11.5,11.5,50,0.00,OVC,,0.00,288.0,WeatherDisplay:10.37,2013-05-11 19:59:00,
2013-05-11 15:04:00,44.6,26.1,30.00,NW,312,9.2,9.2,48,0.00,OVC,,0.00,211.0,WeatherDisplay:10.37,2013-05-11 20:04:00,
2013-05-11 15:09:00,44.2,26.2,30.01,WSW,240,13.8,13.8,49,0.00,OVC,,0.00,114.0,WeatherDisplay:10.37,2013-05-11 20:09:00,
2013-05-11 15:14:00,44.1,28.0,30.01,North,355,4.6,4.6,53,0.00,OVC,,0.00,886.0,WeatherDisplay:10.37,2013-05-11 20:14:00,
2013-05-11 15:19:00,45.4,28.8,30.00,NE,51,8.1,8.1,52,0.00,OVC,,0.00,826.0,WeatherDisplay:10.37,2013-05-11 20:19:00,
2013-05-11 15:24:00,46.4,27.8,30.01,NNE,24,5.8,5.8,48,0.00,OVC,,0.00,202.0,WeatherDisplay:10.37,2013-05-11 20:24:00,
2013-05-11 15:29:00,45.6,29.4,30.01,North,355,3.5,3.8,53,0.00,OVC,,0.00,241.0,WeatherDisplay:10.37,2013-05-11 20:29:00,
2013-05-11 15:34:00,44.9,31.4,30.01,North,5,4.6,4.6,59,0.00,OVC,,0.00,847.0,WeatherDisplay:10.37,2013-05-11 20:34:00,
2013-05-11 15:39:00,45.5,30.7,30.00,NNW,329,4.6,4.6,56,0.00,OVC,,0.00,793.0,WeatherDisplay:10.37,2013-05-11 20:39:00,
2013-05-11 15:44:00,45.9,29.7,30.01,South,190,5.8,5.8,53,0.00,OVC,,0.00,227.0,WeatherDisplay:10.37,2013-05-11 20:44:00,
2013-05-11 15:49:00,45.5,29.3,30.01,WSW,252,6.9,6.9,53,0.00,OVC,,0.00,401.0,WeatherDisplay:10.37,2013-05-11 20:49:00,
2013-05-11 15:54:00,44.9,31.0,30.02,WSW,246,4.0,4.0,58,0.00,OVC,,0.00,218.0,WeatherDisplay:10.37,2013-05-11 20:54:00,
2013-05-11 15:59:00,44.1,30.3,30.02,West,264,10.4,10.4,58,0.00,OVC,,0.00,97.0,WeatherDisplay:10.37,2013-05-11 20:59:00,
2013-05-11 16:04:00,43.0,31.6,30.03,WNW,297,9.2,9.2,64,0.00,OVC,,0.00,125.0,WeatherDisplay:10.37,2013-05-11 21:04:00,
2013-05-11 16:09:00,41.5,33.5,30.02,NNW,332,4.6,4.6,73,0.00,OVC,,0.00,148.0,WeatherDisplay:10.37,2013-05-11 21:09:00,
2013-05-11 16:14:00,42.0,35.0,30.02,NW,319,5.8,5.8,76,0.00,OVC,,0.00,715.0,WeatherDisplay:10.37,2013-05-11 21:14:00,
2013-05-11 16:19:00,42.8,35.1,30.02,WNW,284,8.1,8.1,74,0.00,OVC,,0.00,694.0,WeatherDisplay:10.37,2013-05-11 21:19:00,
2013-05-11 16:24:00,42.7,33.2,30.02,West,261,10.4,10.4,69,0.00,OVC,,0.00,102.0,WeatherDisplay:10.37,2013-05-11 21:24:00,
2013-05-11 16:29:00,42.3,33.2,30.02,West,259,4.0,5.6,70,0.00,OVC,,0.00,60.0,WeatherDisplay:10.37,2013-05-11 21:29:00,
2013-05-11 16:34:00,41.4,33.7,30.04,WSW,240,8.1,8.1,74,0.00,OVC,,0.00,47.0,WeatherDisplay:10.37,2013-05-11 21:34:00,
2013-05-11 16:39:00,40.3,33.7,30.03,NNE,17,4.6,4.6,77,0.01,RA,,0.01,178.0,WeatherDisplay:10.37,2013-05-11 21:39:00,
2013-05-11 16:45:00,39.8,34.4,30.03,WSW,257,8.1,8.1,81,0.01,RA,,0.01,468.0,WeatherDisplay:10.37,2013-05-11 21:45:00,
2013-05-11 16:50:00,40.6,36.4,30.03,SSE,160,4.0,4.0,85,0.01,OVC,,0.01,701.0,WeatherDisplay:10.37,2013-05-11 21:50:00,
2013-05-11 16:55:00,41.3,35.9,30.02,WSW,248,2.3,2.3,81,0.01,OVC,,0.01,97.0,WeatherDisplay:10.37,2013-05-11 21:55:00,
2013-05-11 17:00:00,41.0,34.3,30.03,West,267,4.6,4.6,77,0.01,OVC,,0.01,113.0,WeatherDisplay:10.37,2013-05-11 22:00:00,
2013-05-11 17:05:00,40.8,34.5,30.03,WSW,251,6.9,6.9,78,0.01,BKN,,0.01,118.0,WeatherDisplay:10.37,2013-05-11 22:05:00,
2013-05-11 17:10:00,41.0,35.0,30.02,SSE,162,2.3,0.0,79,0.01,BKN,,0.01,200.0,WeatherDisplay:10.37,2013-05-11 22:10:00,
2013-05-11 17:15:00,41.6,35.6,30.03,West,262,4.0,4.0,79,0.01,BKN,,0.01,204.0,WeatherDisplay:10.37,2013-05-11 22:15:00,
2013-05-11 17:20:00,42.1,34.7,30.03,NNW,343,3.5,3.5,75,0.01,BKN,,0.01,197.0,WeatherDisplay:10.37,2013-05-11 22:20:00,
2013-05-11 17:25:00,42.8,33.3,30.03,West,269,6.9,6.9,69,0.01,BKN,,0.01,207.0,WeatherDisplay:10.37,2013-05-11 22:25:00,
2013-05-11 17:30:00,43.1,32.9,30.03,NE,45,4.0,4.0,67,0.01,BKN,,0.01,93.0,WeatherDisplay:10.37,2013-05-11 22:30:00,
2013-05-11 17:35:00,43.0,31.6,30.02,NW,304,6.9,6.9,64,0.01,BKN,,0.01,35.0,WeatherDisplay:10.37,2013-05-11 22:35:00,
2013-05-11 17:40:00,42.8,31.1,30.03,North,350,3.5,3.5,63,0.00,BKN,,0.01,37.0,WeatherDisplay:10.37,2013-05-11 22:40:00,
2013-05-11 17:45:00,42.7,31.7,30.03,West,272,4.6,4.6,65,0.00,BKN,,0.01,25.0,WeatherDisplay:10.37,2013-05-11 22:45:00,
2013-05-11 17:50:00,42.5,31.6,30.04,NNW,346,1.0,1.4,65,0.00,BKN,,0.01,32.0,WeatherDisplay:10.37,2013-05-11 22:50:00,
2013-05-11 17:55:00,42.0,31.8,30.04,NNW,330,4.6,4.6,67,0.00,BKN,,0.01,76.0,WeatherDisplay:10.37,2013-05-11 22:55:00,
2013-05-11 18:00:00,41.6,31.8,30.04,West,279,5.8,5.8,68,0.00,BKN,,0.01,30.0,WeatherDisplay:10.37,2013-05-11 23:00:00,
2013-05-11 18:05:00,41.4,32.3,30.05,NW,326,3.5,3.5,70,0.00,-RA,,0.01,19.0,WeatherDisplay:10.37,2013-05-11 23:05:00,
2013-05-11 18:10:00,41.1,32.4,30.06,NNE,24,6.9,6.9,71,0.00,-RA,,0.01,12.0,WeatherDisplay:10.37,2013-05-11 23:10:00,
2013-05-11 18:15:00,40.2,32.2,30.05,South,179,8.1,8.1,73,0.00,-RA,,0.01,114.0,WeatherDisplay:10.37,2013-05-11 23:15:00,
2013-05-11 18:20:00,39.3,32.7,30.05,West,281,5.8,5.8,77,0.00,-RA,,0.01,90.0,WeatherDisplay:10.37,2013-05-11 23:20:00,
2013-05-11 18:25:00,39.0,32.7,30.05,NW,317,5.8,5.8,78,0.00,-RA,,0.01,77.0,WeatherDisplay:10.37,2013-05-11 23:25:00,
2013-05-11 18:30:00,39.0,33.0,30.05,SW,232,4.6,4.6,79,0.00,-RA,,0.01,46.0,WeatherDisplay:10.37,2013-05-11 23:30:00,
2013-05-11 18:35:00,39.3,33.0,30.05,WNW,291,5.8,5.8,78,0.01,-RA,,0.02,40.0,WeatherDisplay:10.37,2013-05-11 23:35:00,
2013-05-11 18:40:00,39.7,32.4,30.06,NNE,30,6.9,6.9,75,0.01,-RA,,0.02,42.0,WeatherDisplay:10.37,2013-05-11 23:40:00,
2013-05-11 18:45:00,39.9,32.6,30.05,NW,325,4.6,4.6,75,0.01,-RA,,0.02,69.0,WeatherDisplay:10.37,2013-05-11 23:45:00,
2013-05-11 18:50:00,40.2,32.2,30.06,WNW,283,4.6,4.6,73,0.01,-RA,,0.02,30.0,WeatherDisplay:10.37,2013-05-11 23:50:00,
2013-05-11 18:55:00,40.2,32.6,30.06,NNE,24,5.0,5.0,74,0.01,-RA,,0.02,14.0,WeatherDisplay:10.37,2013-05-11 23:55:00,
2013-05-11 19:00:00,39.8,32.8,30.07,East,89,4.6,4.6,76,0.01,-RA,,0.02,47.0,WeatherDisplay:10.37,2013-05-12 00:00:00,
2013-05-11 19:05:00,39.4,31.8,30.06,West,267,3.5,3.5,74,0.01,BKN,,0.02,28.0,WeatherDisplay:10.37,2013-05-12 00:05:00,
2013-05-11 19:10:00,39.3,31.4,30.06,NNW,342,8.1,8.1,73,0.01,BKN,,0.02,19.0,WeatherDisplay:10.37,2013-05-12 00:10:00,
2013-05-11 19:15:00,39.4,30.4,30.06,ENE,61,4.6,4.6,70,0.01,BKN,,0.02,32.0,WeatherDisplay:10.37,2013-05-12 00:15:00,
2013-05-11 19:20:00,39.5,30.9,30.06,West,261,3.5,3.5,71,0.01,BKN,,0.02,33.0,WeatherDisplay:10.37,2013-05-12 00:20:00,
2013-05-11 19:25:00,39.6,31.3,30.07,West,259,4.6,4.6,72,0.01,BKN,,0.02,19.0,WeatherDisplay:10.37,2013-05-12 00:25:00,
2013-05-11 19:30:00,39.6,31.0,30.07,West,269,4.6,4.6,71,0.01,BKN,,0.02,19.0,WeatherDisplay:10.37,2013-05-12 00:30:00,
2013-05-11 19:35:00,39.6,31.0,30.07,WNW,283,9.2,9.2,71,0.00,BKN,,0.02,14.0,WeatherDisplay:10.37,2013-05-12 00:35:00,
2013-05-11 19:40:00,39.7,31.1,30.07,NE,39,6.9,6.9,71,0.00,BKN,,0.02,21.0,WeatherDisplay:10.37,2013-05-12 00:40:00,
2013-05-11 19:45:00,39.8,30.8,30.07,WSW,246,3.5,3.5,70,0.00,BKN,,0.02,21.0,WeatherDisplay:10.37,2013-05-12 00:45:00,
2013-05-11 19:50:00,39.8,30.8,30.08,South,191,3.5,3.5,70,0.01,RA,,0.03,11.0,WeatherDisplay:10.37,2013-05-12 00:50:00,
2013-05-11 19:55:00,39.8,30.8,30.08,NNE,14,1.1,1.1,70,0.01,RA,,0.03,5.0,WeatherDisplay:10.37,2013-05-12 00:55:00,
2013-05-11 20:00:00,39.8,30.5,30.08,West,261,2.3,2.3,69,0.01,BKN,,0.03,0.0,WeatherDisplay:10.37,2013-05-12 01:00:00,
2013-05-11 20:05:00,39.8,30.1,30.08,WNW,286,9.2,9.2,68,0.01,OVC,,0.03,0.0,WeatherDisplay:10.37,2013-05-12 01:05:00,
2013-05-11 20:10:00,39.8,30.1,30.08,NE,35,3.5,3.5,68,0.01,OVC,,0.03,0.0,WeatherDisplay:10.37,2013-05-12 01:10:00,
2013-05-11 20:15:00,39.8,29.4,30.08,NW,317,2.3,2.3,66,0.01,OVC,,0.03,0.0,WeatherDisplay:10.37,2013-05-12 01:15:00,
2013-05-11 20:20:00,39.8,29.4,30.08,NNE,24,3.5,3.5,66,0.01,OVC,,0.03,0.0,WeatherDisplay:10.37,2013-05-12 01:20:00,
2013-05-11 20:25:00,39.8,29.7,30.08,NNW,327,1.1,1.1,67,0.01,OVC,,0.03,0.0,WeatherDisplay:10.37,2013-05-12 01:25:00,
2013-05-11 20:30:00,39.7,29.6,30.08,WNW,289,3.0,3.0,67,0.01,OVC,,0.03,0.0,WeatherDisplay:10.37,2013-05-12 01:30:00,
2013-05-11 20:35:00,39.8,28.6,30.09,NNW,335,3.0,3.0,64,0.01,OVC,,0.03,0.0,WeatherDisplay:10.37,2013-05-12 01:35:00,
2013-05-11 20:40:00,39.7,28.1,30.09,North,9,8.1,8.1,63,0.01,OVC,,0.03,0.0,WeatherDisplay:10.37,2013-05-12 01:40:00,
2013-05-11 20:45:00,39.7,28.5,30.09,WNW,301,6.0,6.0,64,0.01,OVC,,0.03,0.0,WeatherDisplay:10.37,2013-05-12 01:45:00,
2013-05-11 20:50:00,39.7,27.7,30.09,WSW,250,6.9,6.9,62,0.00,OVC,,0.03,0.0,WeatherDisplay:10.37,2013-05-12 01:50:00,
2013-05-11 20:55:00,39.8,28.2,30.09,WNW,303,6.9,6.9,63,0.00,OVC,,0.03,0.0,WeatherDisplay:10.37,2013-05-12 01:55:00,
2013-05-11 21:00:00,39.8,27.4,30.09,NW,321,9.2,9.2,61,0.00,OVC,,0.03,0.0,WeatherDisplay:10.37,2013-05-12 02:00:00,
2013-05-11 21:05:00,39.8,27.8,30.10,NNE,18,1.1,1.1,62,0.00,OVC,,0.03,0.0,WeatherDisplay:10.37,2013-05-12 02:05:00,
2013-05-11 21:10:00,39.7,27.3,30.10,NNE,20,3.5,3.5,61,0.00,OVC,,0.03,0.0,WeatherDisplay:10.37,2013-05-12 02:10:00,
2013-05-11 21:15:00,39.8,28.6,30.10,NW,311,1.1,1.1,64,0.00,OVC,,0.03,0.0,WeatherDisplay:10.37,2013-05-12 02:15:00,
2013-05-11 21:20:00,39.7,26.9,30.10,East,101,1.1,1.1,60,0.00,OVC,,0.03,0.0,WeatherDisplay:10.37,2013-05-12 02:20:00,
2013-05-11 21:25:00,39.7,26.1,30.10,NNE,15,3.5,3.5,58,0.00,OVC,,0.03,0.0,WeatherDisplay:10.37,2013-05-12 02:25:00,
2013-05-11 21:30:00,39.7,25.7,30.11,NNW,329,11.5,11.5,57,0.00,OVC,,0.03,0.0,WeatherDisplay:10.37,2013-05-12 02:30:00,
2013-05-11 21:35:00,39.6,25.6,30.10,NNE,18,3.5,3.5,57,0.00,OVC,,0.03,0.0,WeatherDisplay:10.37,2013-05-12 02:35:00,
2013-05-11 21:40:00,39.6,25.6,30.10,NNE,13,3.5,3.5,57,0.00,OVC,,0.03,0.0,WeatherDisplay:10.37,2013-05-12 02:40:00,
2013-05-11 21:45:00,39.6,26.4,30.11,NNW,346,4.6,4.6,59,0.00,OVC,,0.03,0.0,WeatherDisplay:10.37,2013-05-12 02:45:00,
2013-05-11 21:50:00,39.5,26.3,30.11,NNE,30,2.3,2.3,59,0.00,OVC,,0.03,0.0,WeatherDisplay:10.37,2013-05-12 02:50:00,
2013-05-11 21:55:00,39.5,25.1,30.11,WSW,245,11.5,11.5,56,0.00,OVC,,0.03,0.0,WeatherDisplay:10.37,2013-05-12 02:55:00,
2013-05-11 22:00:00,39.4,25.8,30.11,NE,39,2.0,2.0,58,0.00,OVC,,0.03,0.0,WeatherDisplay:10.37,2013-05-12 03:00:00,
2013-05-11 22:05:00,39.3,25.7,30.11,North,360,2.3,2.3,58,0.00,FEW,,0.03,0.0,WeatherDisplay:10.37,2013-05-12 03:05:00,
2013-05-11 22:10:00,39.2,25.6,30.11,North,360,3.5,3.5,58,0.00,FEW,,0.03,0.0,WeatherDisplay:10.37,2013-05-12 03:10:00,
2013-05-11 22:15:00,39.1,24.7,30.11,East,82,5.8,5.8,56,0.00,FEW,,0.03,0.0,WeatherDisplay:10.37,2013-05-12 03:15:00,
2013-05-11 22:20:00,39.1,25.1,30.12,West,271,3.5,3.5,57,0.00,FEW,,0.03,0.0,WeatherDisplay:10.37,2013-05-12 03:20:00,
2013-05-11 22:25:00,38.9,25.4,30.11,NW,324,5.8,5.8,58,0.00,FEW,,0.03,0.0,WeatherDisplay:10.37,2013-05-12 03:25:00,
2013-05-11 22:30:00,38.8,25.3,30.11,ENE,61,2.3,2.3,58,0.00,FEW,,0.03,0.0,WeatherDisplay:10.37,2013-05-12 03:30:00,
2013-05-11 22:35:00,38.6,24.2,30.11,NE,44,4.6,4.6,56,0.00,FEW,,0.03,0.0,WeatherDisplay:10.37,2013-05-12 03:35:00,
2013-05-11 22:40:00,38.4,24.1,30.11,NNW,348,4.6,4.6,56,0.00,FEW,,0.03,0.0,WeatherDisplay:10.37,2013-05-12 03:40:00,
2013-05-11 22:45:00,38.2,23.9,30.12,ENE,61,5.0,5.0,56,0.00,FEW,,0.03,0.0,WeatherDisplay:10.37,2013-05-12 03:45:00,
2013-05-11 22:50:00,38.0,23.3,30.12,West,260,4.0,4.0,55,0.00,FEW,,0.03,0.0,WeatherDisplay:10.37,2013-05-12 03:50:00,
2013-05-11 22:55:00,37.9,23.6,30.12,NE,56,3.5,3.5,56,0.00,FEW,,0.03,0.0,WeatherDisplay:10.37,2013-05-12 03:55:00,
2013-05-11 23:01:00,37.9,23.6,30.12,NE,55,3.5,3.5,56,0.00,FEW,,0.03,0.0,WeatherDisplay:10.37,2013-05-12 04:01:00,
2013-05-11 23:06:00,37.7,23.4,30.12,NNE,22,1.1,1.1,56,0.00,BKN,,0.03,0.0,WeatherDisplay:10.37,2013-05-12 04:06:00,
2013-05-11 23:11:00,37.6,23.7,30.12,WNW,288,2.3,2.3,57,0.00,BKN,,0.03,0.0,WeatherDisplay:10.37,2013-05-12 04:11:00,
2013-05-11 23:16:00,37.5,23.6,30.12,NNE,24,3.5,3.5,57,0.00,BKN,,0.03,0.0,WeatherDisplay:10.37,2013-05-12 04:16:00,
2013-05-11 23:21:00,37.4,23.5,30.12,NNE,15,3.5,3.5,57,0.00,BKN,,0.03,0.0,WeatherDisplay:10.37,2013-05-12 04:21:00,
2013-05-11 23:26:00,37.4,24.4,30.12,SW,232,6.0,6.0,59,0.00,BKN,,0.03,0.0,WeatherDisplay:10.37,2013-05-12 04:26:00,
2013-05-11 23:31:00,37.3,23.9,30.12,WNW,292,4.6,4.6,58,0.00,BKN,,0.03,0.0,WeatherDisplay:10.37,2013-05-12 04:31:00,
2013-05-11 23:36:00,37.3,23.9,30.12,NE,43,2.3,2.3,58,0.00,BKN,,0.03,0.0,WeatherDisplay:10.37,2013-05-12 04:36:00,
2013-05-11 23:41:00,37.3,24.3,30.12,North,360,2.3,2.3,59,0.00,BKN,,0.03,0.0,WeatherDisplay:10.37,2013-05-12 04:41:00,
2013-05-11 23:46:00,37.3,24.7,30.12,NNE,25,0.0,0.1,60,0.00,BKN,,0.03,0.0,WeatherDisplay:10.37,2013-05-12 04:46:00,
2013-05-11 23:51:00,37.2,24.6,30.12,ENE,69,1.1,0.0,60,0.00,BKN,,0.03,0.0,WeatherDisplay:10.37,2013-05-12 04:51:00,
2013-05-11 23:56:00,37.2,25.0,30.12,NNE,21,1.1,0.0,61,0.00,BKN,,0.03,0.0,WeatherDisplay:10.37,2013-05-12 04:56:00,